createdAt,value
2022-11-30T00:01:54.686Z,77.15
2022-11-30T00:04:30.032Z,78.39
2022-11-30T00:07:02.232Z,78.00
2022-11-30T00:09:34.733Z,76.15
2022-11-30T00:12:07.373Z,76.78
2022-11-30T00:14:39.952Z,76.31
2022-11-30T00:17:12.133Z,76.54
2022-11-30T00:19:47.572Z,77.53
2022-11-30T00:22:19.632Z,76.68
2022-11-30T00:24:52.338Z,77.34
2022-11-30T00:27:24.356Z,77.91
2022-11-30T00:29:57.114Z,76.33
2022-11-30T00:32:30.411Z,76.13
2022-11-30T00:35:05.476Z,77.44
2022-11-30T00:37:38.499Z,78.59
2022-11-30T00:40:12.196Z,77.19
2022-11-30T00:42:44.469Z,76.69
2022-11-30T00:45:58.862Z,78.05
2022-11-30T00:48:31.371Z,77.61
2022-11-30T00:51:06.980Z,78.66
2022-11-30T00:53:39.292Z,78.50
2022-11-30T00:56:13.154Z,77.70
2022-11-30T00:58:45.319Z,77.00
2022-11-30T01:01:17.694Z,75.59
2022-11-30T01:03:49.933Z,75.91
2022-11-30T01:06:25.138Z,76.71
2022-11-30T01:08:57.461Z,76.77
2022-11-30T01:11:32.271Z,75.76
2022-11-30T01:14:04.772Z,75.67
2022-11-30T01:16:37.372Z,75.85
2022-11-30T01:19:09.252Z,75.61
2022-11-30T01:21:44.414Z,75.69
2022-11-30T01:24:16.617Z,75.96
2022-11-30T01:26:48.972Z,76.81
2022-11-30T01:29:21.172Z,77.08
2022-11-30T01:31:53.692Z,77.41
2022-11-30T01:34:25.735Z,76.75
2022-11-30T01:37:00.879Z,76.13
2022-11-30T01:39:33.051Z,76.13
2022-11-30T01:42:05.441Z,76.83
2022-11-30T01:44:54.358Z,78.10
2022-11-30T01:47:31.953Z,77.94
2022-11-30T01:50:09.444Z,76.94
2022-11-30T01:53:26.752Z,76.45
2022-11-30T01:55:59.012Z,75.16
2022-11-30T01:58:34.354Z,74.32
2022-11-30T02:01:06.730Z,76.26
2022-11-30T02:03:45.514Z,76.08
2022-11-30T02:06:18.733Z,76.33
2022-11-30T02:08:55.214Z,75.54
2022-11-30T02:11:30.553Z,75.11
2022-11-30T02:14:19.095Z,76.65
2022-11-30T02:16:59.673Z,75.41
2022-11-30T02:19:59.022Z,76.77
2022-11-30T02:22:46.956Z,76.34
2022-11-30T02:25:30.140Z,77.42
2022-11-30T02:28:27.474Z,77.69
2022-11-30T02:31:06.507Z,76.72
2022-11-30T02:33:40.511Z,76.98
2022-11-30T02:36:13.772Z,77.18
2022-11-30T02:38:46.196Z,76.78
2022-11-30T02:41:18.713Z,75.71
2022-11-30T02:43:51.275Z,76.37
2022-11-30T02:46:34.272Z,75.43
2022-11-30T02:49:13.531Z,74.86
2022-11-30T02:51:49.072Z,76.29
2022-11-30T02:54:22.076Z,76.68
2022-11-30T02:56:54.493Z,77.11
2022-11-30T02:59:26.673Z,76.90
2022-11-30T03:02:02.090Z,77.40
2022-11-30T03:04:34.233Z,76.59
2022-11-30T03:07:06.992Z,75.88
2022-11-30T03:09:38.933Z,76.80
2022-11-30T03:12:11.274Z,76.84
2022-11-30T03:14:43.077Z,77.55
2022-11-30T03:17:18.259Z,77.03
2022-11-30T03:19:50.094Z,76.71
2022-11-30T03:22:22.274Z,76.58
2022-11-30T03:24:54.034Z,75.38
2022-11-30T03:27:26.362Z,74.84
2022-11-30T03:29:58.592Z,75.08
2022-11-30T03:32:33.833Z,76.17
2022-11-30T03:35:05.452Z,75.73
2022-11-30T03:37:37.395Z,75.46
2022-11-30T03:40:10.673Z,77.45
2022-11-30T03:42:43.213Z,77.17
2022-11-30T03:45:15.152Z,76.77
2022-11-30T03:47:50.254Z,76.92
2022-11-30T03:50:22.031Z,76.19
2022-11-30T03:52:54.160Z,75.49
2022-11-30T03:55:25.893Z,75.43
2022-11-30T03:57:58.013Z,75.87
2022-11-30T04:00:29.814Z,76.42
2022-11-30T04:03:04.675Z,75.67
2022-11-30T04:05:36.513Z,75.80
2022-11-30T04:08:08.656Z,76.13
2022-11-30T04:10:40.614Z,76.26
2022-11-30T04:13:12.662Z,76.11
2022-11-30T04:15:44.400Z,75.67
2022-11-30T04:18:20.536Z,74.82
2022-11-30T04:20:54.412Z,74.98
2022-11-30T04:23:27.891Z,75.14
2022-11-30T04:26:00.352Z,75.48
2022-11-30T04:29:11.715Z,75.64
2022-11-30T04:31:58.334Z,75.43
2022-11-30T04:34:33.013Z,75.27
2022-11-30T04:37:04.672Z,76.36
2022-11-30T04:39:38.195Z,76.44
2022-11-30T04:42:10.973Z,76.17
2022-11-30T04:44:42.932Z,76.07
2022-11-30T04:47:14.655Z,75.97
2022-11-30T04:49:49.513Z,76.85
2022-11-30T04:52:21.372Z,77.11
2022-11-30T04:54:53.773Z,76.51
2022-11-30T04:57:25.891Z,75.48
2022-11-30T04:59:57.975Z,75.05
2022-11-30T05:02:30.031Z,76.22
2022-11-30T05:05:07.919Z,76.95
2022-11-30T05:07:40.991Z,77.44
2022-11-30T05:10:14.717Z,75.89
2022-11-30T05:12:46.934Z,75.40
2022-11-30T05:15:19.634Z,76.42
2022-11-30T05:17:51.701Z,75.25
2022-11-30T05:20:26.833Z,74.46
2022-11-30T05:22:58.934Z,75.53
2022-11-30T05:25:31.413Z,75.02
2022-11-30T05:28:03.351Z,75.16
2022-11-30T05:30:35.991Z,75.32
2022-11-30T05:33:08.095Z,75.62
2022-11-30T05:35:44.294Z,75.66
2022-11-30T05:38:16.318Z,75.72
2022-11-30T05:40:48.914Z,75.17
2022-11-30T05:43:21.832Z,74.80
2022-11-30T05:45:54.378Z,75.45
2022-11-30T05:48:26.413Z,74.99
2022-11-30T05:51:08.374Z,75.85
2022-11-30T05:56:41.923Z,76.14
2022-11-30T05:59:14.314Z,76.23
2022-11-30T06:01:47.140Z,75.72
2022-11-30T06:04:19.463Z,76.04
2022-11-30T06:06:56.023Z,75.80
2022-11-30T06:09:28.091Z,75.74
2022-11-30T06:12:00.810Z,76.20
2022-11-30T06:14:36.179Z,75.24
2022-11-30T06:17:08.994Z,74.86
2022-11-30T06:19:41.233Z,74.09
2022-11-30T06:22:16.393Z,75.39
2022-11-30T06:24:48.846Z,74.13
2022-11-30T06:27:21.664Z,75.05
2022-11-30T06:29:53.953Z,74.29
2022-11-30T06:32:26.453Z,74.40
2022-11-30T06:34:58.591Z,73.38
2022-11-30T06:37:36.774Z,73.32
2022-11-30T06:40:11.243Z,72.91
2022-11-30T06:42:43.753Z,73.49
2022-11-30T06:45:16.093Z,72.66
2022-11-30T06:50:39.511Z,72.34
2022-11-30T06:53:14.794Z,73.03
2022-11-30T06:55:46.817Z,72.55
2022-11-30T06:58:19.494Z,73.28
2022-11-30T07:00:51.756Z,73.59
2022-11-30T07:03:24.253Z,73.25
2022-11-30T07:05:56.292Z,72.93
2022-11-30T07:08:31.494Z,74.01
2022-11-30T07:11:03.974Z,74.01
2022-11-30T07:13:36.594Z,74.56
2022-11-30T07:16:10.847Z,73.36
2022-11-30T07:18:43.312Z,74.61
2022-11-30T07:21:15.476Z,75.07
2022-11-30T07:24:02.795Z,75.38
2022-11-30T07:26:35.117Z,74.39
2022-11-30T07:29:07.581Z,73.90
2022-11-30T07:31:39.921Z,73.24
2022-11-30T07:34:13.755Z,72.41
2022-11-30T07:36:46.241Z,73.51
2022-11-30T07:39:21.564Z,73.68
2022-11-30T07:41:53.873Z,74.32
2022-11-30T07:44:26.462Z,74.18
2022-11-30T07:46:58.671Z,71.66
2022-11-30T07:49:33.794Z,73.06
2022-11-30T07:52:06.432Z,73.16
2022-11-30T07:54:41.753Z,73.04
2022-11-30T07:57:17.314Z,73.31
2022-11-30T07:59:50.049Z,72.46
2022-11-30T08:02:22.557Z,72.54
2022-11-30T08:04:58.597Z,72.53
2022-11-30T08:07:30.718Z,72.61
2022-11-30T08:10:05.895Z,72.77
2022-11-30T08:12:38.212Z,72.58
2022-11-30T08:15:19.823Z,72.55
2022-11-30T08:17:55.536Z,72.67
2022-11-30T08:20:28.299Z,72.55
2022-11-30T08:23:02.687Z,71.84
2022-11-30T08:25:38.250Z,71.82
2022-11-30T08:28:10.651Z,71.70
2022-11-30T08:30:43.602Z,71.69
2022-11-30T08:33:16.163Z,71.91
2022-11-30T08:35:49.085Z,71.85
2022-11-30T08:38:21.846Z,71.54
2022-11-30T08:41:00.884Z,71.56
2022-11-30T08:43:33.770Z,72.19
2022-11-30T08:49:20.393Z,71.87
2022-11-30T08:54:51.455Z,71.59
2022-11-30T08:57:27.282Z,70.76
2022-11-30T08:59:59.571Z,70.84
2022-11-30T09:02:32.562Z,70.34
2022-11-30T09:05:05.207Z,69.72
2022-11-30T09:07:38.526Z,69.67
2022-11-30T09:10:23.172Z,70.32
2022-11-30T09:12:59.012Z,70.00
2022-11-30T09:15:31.687Z,69.44
2022-11-30T09:18:04.852Z,69.93
2022-11-30T09:20:37.812Z,69.83
2022-11-30T09:23:10.852Z,70.62
2022-11-30T09:25:44.371Z,70.86
2022-11-30T09:28:20.291Z,70.27
2022-11-30T09:30:53.049Z,68.60
2022-11-30T09:33:26.057Z,68.84
2022-11-30T09:36:00.131Z,68.66
2022-11-30T09:38:33.327Z,69.28
2022-11-30T09:41:10.324Z,68.82
2022-11-30T09:43:54.843Z,67.81
2022-11-30T09:46:32.644Z,67.36
2022-11-30T09:49:08.011Z,68.18
2022-11-30T09:51:48.884Z,68.31
2022-11-30T09:54:35.805Z,67.60
2022-11-30T09:57:22.368Z,67.48
2022-11-30T10:00:00.981Z,67.29
2022-11-30T10:02:35.928Z,66.60
2022-11-30T10:05:16.523Z,67.73
2022-11-30T10:08:05.282Z,67.02
2022-11-30T10:10:43.685Z,66.85
2022-11-30T10:13:33.617Z,65.69
2022-11-30T10:16:21.244Z,65.72
2022-11-30T10:19:01.404Z,66.73
2022-11-30T10:21:51.284Z,64.81
2022-11-30T10:24:39.124Z,65.18
2022-11-30T10:27:20.767Z,65.44
2022-11-30T10:29:53.619Z,65.39
2022-11-30T10:32:39.303Z,66.21
2022-11-30T10:35:23.571Z,66.77
2022-11-30T10:37:59.539Z,66.51
2022-11-30T10:40:40.891Z,66.59
2022-11-30T10:43:23.054Z,66.54
2022-11-30T10:45:55.843Z,66.28
2022-11-30T10:48:44.385Z,66.19
2022-11-30T10:51:19.930Z,66.69
2022-11-30T10:53:52.039Z,66.55
2022-11-30T10:56:29.568Z,64.61
2022-11-30T10:59:07.395Z,65.89
2022-11-30T11:01:46.340Z,64.35
2022-11-30T11:04:24.001Z,64.28
2022-11-30T11:07:00.830Z,66.43
2022-11-30T11:09:42.883Z,65.75
2022-11-30T11:12:21.097Z,64.84
2022-11-30T11:15:12.390Z,64.76
2022-11-30T11:17:43.985Z,65.23
2022-11-30T11:20:39.689Z,64.95
2022-11-30T11:23:29.257Z,65.76
2022-11-30T11:26:03.580Z,64.71
2022-11-30T11:28:37.830Z,64.70
2022-11-30T11:31:22.256Z,64.17
2022-11-30T11:33:57.628Z,64.60
2022-11-30T11:36:36.981Z,65.98
2022-11-30T11:39:29.815Z,64.74
2022-11-30T11:42:05.642Z,64.42
2022-11-30T11:44:37.505Z,64.98
2022-11-30T11:47:12.329Z,64.70
2022-11-30T11:49:43.970Z,65.05
2022-11-30T11:52:23.159Z,64.16
2022-11-30T11:55:00.610Z,63.23
2022-11-30T11:57:43.671Z,63.21
2022-11-30T12:00:21.438Z,63.29
2022-11-30T12:03:03.279Z,65.13
2022-11-30T12:05:45.119Z,64.55
2022-11-30T12:08:34.143Z,64.00
2022-11-30T12:11:12.233Z,65.08
2022-11-30T12:13:46.407Z,64.82
2022-11-30T12:16:38.225Z,65.27
2022-11-30T12:19:18.753Z,65.33
2022-11-30T12:22:11.993Z,65.76
2022-11-30T12:25:16.781Z,65.72
2022-11-30T12:28:02.369Z,65.14
2022-11-30T12:30:50.721Z,66.50
2022-11-30T12:33:43.297Z,64.80
2022-11-30T12:36:23.575Z,65.21
2022-11-30T12:39:01.949Z,64.55
2022-11-30T12:41:45.265Z,67.17
2022-11-30T12:44:38.525Z,66.84
2022-11-30T12:47:29.154Z,65.44
2022-11-30T12:50:22.219Z,66.73
2022-11-30T12:53:03.910Z,67.54
2022-11-30T12:55:43.540Z,67.95
2022-11-30T12:58:25.818Z,67.37
2022-11-30T13:01:13.670Z,67.44
2022-11-30T13:03:51.655Z,67.02
2022-11-30T13:06:27.790Z,66.80
2022-11-30T13:09:05.642Z,67.15
2022-11-30T13:11:41.383Z,66.62
2022-11-30T13:14:20.275Z,66.48
2022-11-30T13:16:54.046Z,67.32
2022-11-30T13:19:44.296Z,67.62
2022-11-30T13:22:25.739Z,68.17
2022-11-30T13:25:06.205Z,68.23
2022-11-30T13:27:47.496Z,68.73
2022-11-30T13:30:35.224Z,67.29
2022-11-30T13:33:39.096Z,68.20
2022-11-30T13:36:29.037Z,68.29
2022-11-30T13:39:28.210Z,69.23
2022-11-30T13:42:34.388Z,68.05
2022-11-30T13:45:38.937Z,68.93
2022-11-30T13:48:33.908Z,70.71
2022-11-30T13:51:05.665Z,69.46
2022-11-30T13:53:39.429Z,70.59
2022-11-30T13:56:37.081Z,69.15
2022-11-30T13:59:41.199Z,71.87
2022-11-30T14:02:45.124Z,73.74
2022-11-30T16:28:03.346Z,81.87
2022-11-30T16:30:36.948Z,79.97
2022-11-30T16:33:09.873Z,78.46
2022-11-30T16:35:45.192Z,77.75
2022-11-30T16:38:37.727Z,78.96
2022-11-30T16:41:18.054Z,78.69
2022-11-30T16:43:54.808Z,80.25
2022-11-30T16:46:29.030Z,80.64
2022-11-30T16:49:00.610Z,80.19
2022-11-30T16:51:36.409Z,78.50
2022-11-30T16:54:08.335Z,77.89
2022-11-30T16:56:40.586Z,78.29
2022-11-30T16:59:17.039Z,77.02
2022-11-30T17:01:53.240Z,78.41
2022-11-30T17:04:29.907Z,78.08
2022-11-30T17:07:03.025Z,78.87
2022-11-30T17:09:35.186Z,79.41
2022-11-30T17:12:07.652Z,77.95
2022-11-30T17:14:42.055Z,79.26
2022-11-30T17:23:40.508Z,79.69
2022-11-30T17:26:12.857Z,79.20
2022-11-30T17:28:45.629Z,79.51
2022-11-30T17:31:20.809Z,79.99
2022-11-30T17:33:53.695Z,80.57
2022-11-30T17:36:27.072Z,78.90
2022-11-30T17:38:59.769Z,78.54
2022-11-30T17:41:32.178Z,78.60
2022-11-30T17:44:05.197Z,77.21
2022-11-30T17:46:45.333Z,77.79
2022-11-30T17:49:20.871Z,79.59
2022-11-30T17:51:53.228Z,78.33
2022-11-30T17:54:25.757Z,78.94
2022-11-30T17:56:57.385Z,79.38
2022-11-30T17:59:29.408Z,78.59
2022-11-30T18:02:03.443Z,77.63
2022-11-30T18:04:35.516Z,78.39
2022-11-30T18:07:07.218Z,78.28
2022-11-30T18:09:42.542Z,78.04
2022-11-30T18:12:14.844Z,77.73
2022-11-30T18:14:47.376Z,79.19
2022-11-30T18:17:21.922Z,78.95
2022-11-30T18:19:55.073Z,79.54
2022-11-30T18:22:28.623Z,79.46
2022-11-30T18:25:00.492Z,78.60
2022-11-30T18:27:32.318Z,79.78
2022-11-30T18:30:09.848Z,81.10
2022-11-30T18:32:44.747Z,82.27
2022-11-30T18:35:16.869Z,80.97
2022-11-30T18:37:48.818Z,80.59
2022-11-30T18:40:20.872Z,79.28
2022-11-30T18:42:52.392Z,79.23
2022-11-30T18:45:24.435Z,79.96
2022-11-30T18:48:00.749Z,79.54
2022-11-30T18:50:33.079Z,78.94
2022-11-30T18:53:04.830Z,78.32
2022-11-30T18:55:37.864Z,78.02
2022-11-30T18:58:18.739Z,77.89
2022-11-30T19:01:11.090Z,78.68
2022-11-30T19:03:45.698Z,79.00
2022-11-30T19:06:17.659Z,78.71
2022-11-30T19:08:50.205Z,78.68
2022-11-30T19:11:22.398Z,79.89
2022-11-30T19:13:57.505Z,78.83
2022-11-30T19:16:31.390Z,78.23
2022-11-30T19:19:07.566Z,76.76
2022-11-30T19:21:39.855Z,76.82
2022-11-30T19:24:12.688Z,77.00
2022-11-30T19:26:44.619Z,76.89
2022-11-30T19:29:17.062Z,76.40
2022-11-30T19:31:49.030Z,77.02
2022-11-30T19:34:23.267Z,76.86
2022-11-30T19:36:55.461Z,78.01
2022-11-30T19:39:27.109Z,79.36
2022-11-30T19:41:59.130Z,79.36
2022-11-30T19:44:30.612Z,79.90
2022-11-30T19:47:02.745Z,80.27
2022-11-30T19:49:37.160Z,81.27
2022-11-30T19:52:09.234Z,79.84
2022-11-30T19:54:40.458Z,79.22
2022-11-30T19:57:12.060Z,80.90
2022-11-30T19:59:43.977Z,80.59
2022-11-30T20:02:15.659Z,79.39
2022-11-30T20:04:49.702Z,79.41
2022-11-30T20:07:21.436Z,80.68
2022-11-30T20:09:52.954Z,79.90
2022-11-30T20:12:24.894Z,79.84
2022-11-30T20:14:56.150Z,80.61
2022-11-30T20:17:30.134Z,80.85
2022-11-30T20:20:04.357Z,80.20
2022-11-30T20:22:36.584Z,79.92
2022-11-30T20:25:08.925Z,79.70
2022-11-30T20:27:40.588Z,80.21
2022-11-30T20:30:12.765Z,80.80
2022-11-30T20:32:44.367Z,81.38
2022-11-30T20:35:18.918Z,80.63
2022-11-30T20:38:02.835Z,79.55
2022-11-30T20:40:34.892Z,79.97
2022-11-30T20:43:07.292Z,79.85
2022-11-30T20:45:39.573Z,79.85
2022-11-30T20:48:11.679Z,79.21
2022-11-30T20:51:00.984Z,78.54
2022-11-30T20:53:38.792Z,79.90
2022-11-30T20:56:11.632Z,79.38
2022-11-30T20:58:44.173Z,79.52
2022-11-30T21:01:18.413Z,79.39
2022-11-30T21:03:51.255Z,79.54
2022-11-30T21:06:28.280Z,79.87
2022-11-30T21:09:00.794Z,80.18
2022-11-30T21:11:33.580Z,79.29
2022-11-30T21:14:06.024Z,78.13
2022-11-30T21:16:37.464Z,78.18
2022-11-30T21:19:12.386Z,78.41
2022-11-30T21:21:46.728Z,79.17
2022-11-30T21:24:18.512Z,79.35
2022-11-30T21:26:50.137Z,79.26
2022-11-30T21:29:22.049Z,77.67
2022-11-30T21:31:53.351Z,76.53
2022-11-30T21:34:25.923Z,78.07
2022-11-30T21:37:00.102Z,77.64
2022-11-30T21:39:32.972Z,78.03
2022-11-30T21:42:04.120Z,78.24
2022-11-30T21:44:36.002Z,79.47
2022-11-30T21:47:10.578Z,79.01
2022-11-30T21:49:42.464Z,79.05
2022-11-30T21:52:16.990Z,79.54
2022-11-30T21:54:53.572Z,80.03
2022-11-30T21:57:25.360Z,79.51
2022-11-30T21:59:58.744Z,80.46
2022-11-30T22:02:31.141Z,79.17
2022-11-30T22:05:03.108Z,77.18
2022-11-30T22:07:37.449Z,77.92
2022-11-30T22:10:10.947Z,77.06
2022-11-30T22:12:45.176Z,78.66
2022-11-30T22:15:19.217Z,79.74
2022-11-30T22:17:51.541Z,80.27
2022-11-30T22:20:27.349Z,80.33
2022-11-30T22:23:03.399Z,79.69
2022-11-30T22:25:35.630Z,80.10
2022-11-30T22:28:07.570Z,80.83
2022-11-30T22:30:40.019Z,80.82
2022-11-30T22:33:12.238Z,79.67
2022-11-30T22:35:46.420Z,77.91
2022-11-30T22:38:20.304Z,77.50
2022-11-30T22:40:52.017Z,77.13
2022-11-30T22:43:23.100Z,78.33
2022-11-30T22:45:56.455Z,78.60
2022-11-30T22:48:27.628Z,78.20
2022-11-30T22:50:59.004Z,79.95
2022-11-30T22:53:33.226Z,78.85
2022-11-30T22:56:06.413Z,78.28
2022-11-30T22:58:38.314Z,78.16
2022-11-30T23:01:16.948Z,78.29
2022-11-30T23:03:51.848Z,78.90
2022-11-30T23:06:25.836Z,78.46
2022-11-30T23:09:01.460Z,77.71
2022-11-30T23:11:34.125Z,78.64
2022-11-30T23:14:08.442Z,78.17
2022-11-30T23:16:41.156Z,79.25
2022-11-30T23:19:16.638Z,79.60
2022-11-30T23:21:50.223Z,78.41
2022-11-30T23:24:25.164Z,78.03
2022-11-30T23:26:57.258Z,77.70
2022-11-30T23:29:28.610Z,76.96
2022-11-30T23:32:00.278Z,77.64
2022-11-30T23:34:31.807Z,78.31
2022-11-30T23:37:05.087Z,78.12
2022-11-30T23:39:40.210Z,77.38
2022-11-30T23:42:12.062Z,78.37
2022-11-30T23:44:43.561Z,78.90
2022-11-30T23:47:18.549Z,79.51
2022-11-30T23:49:50.847Z,79.10
2022-11-30T23:52:23.621Z,79.34
2022-11-30T23:54:57.483Z,77.56
2022-11-30T23:57:30.096Z,77.62
